Latest Coastal Weather Observations for Port Macquarie Airport

IDN60701

Issued at 5:31 pm EST Saturday 29 August 2015 (issued every 10 minutes, with the page automatically refreshed every 10 minutes)

About coastal observations | Map of coastal stations | Coastal observations for NSW | Marine services | Other Formats
Station Details ID: 060139 Name: PORT MACQUARIE AIRPORT AWS Lat: -31.43 Lon: 152.87 Height: 4.2 m
Data from the previous 72 hours. | See also: Recent months at Port Macquarie Airport
Date/Time
EST
Temp

°C
Wind Pressure Rain
since 9am
mm
Weather Cloud Vis
km
Sea
Height
m
Swell
Dir
 
Speed
knots
Gust
knots
hPa Trend Height
m
Period
s
Dir
29/05:30pm 17.3 N 8 11 1017.7 - 0.0 - - 10 - - - -
29/05:00pm 18.2 NNE 10 15 1017.6 - 0.0 - - 10 - - - -
29/04:30pm 18.8 NE 12 16 1017.3 - 0.0 - - 10 - - - -
29/04:00pm 19.3 NE 13 16 1017.5 - 0.0 - - 10 - - - -
29/03:30pm 19.7 NE 11 16 1017.5 - 0.0 - - 10 - - - -
29/03:00pm 19.8 NE 12 17 1017.7 - 0.0 - Mostly clear 10 - - - -
29/02:30pm 19.5 NE 12 17 1017.8 - 0.0 - Partly cloudy 10 - - - -
29/02:00pm 20.4 NE 12 17 1018.1 - 0.0 - - 10 - - - -
29/01:30pm 19.9 NE 11 17 1018.5 - 0.0 - - 10 - - - -
29/01:00pm 20.2 ENE 10 15 1019.2 - 0.0 - Partly cloudy 10 - - - -
29/12:30pm 19.3 ENE 9 12 1020.0 - 0.0 - Partly cloudy 10 - - - -
29/12:00pm 18.2 E 9 12 1020.6 - 0.0 - Partly cloudy 10 - - - -
29/11:30am 18.9 ENE 7 11 1021.3 - 0.0 - Partly cloudy 10 - - - -
29/11:00am 19.9 NW 6 11 1021.9 - 0.0 - - 10 - - - -
29/10:30am 18.9 N 3 6 1022.5 - 0.0 - - 10 - - - -
29/10:00am 17.6 N 3 6 1022.8 - 0.0 - - 10 - - - -
29/09:30am 16.5 WNW 4 5 1023.1 - 0.0 - - 10 - - - -
29/09:00am 14.6 W 6 8 1023.4 - 0.0 - - 10 - - - -
29/08:30am 13.5 WNW 5 8 1023.7 - 0.0 - - 10 - - - -
29/08:00am 11.7 WNW 5 7 1023.7 - 0.0 - - 10 - - - -
29/07:30am 9.7 NW 3 4 1023.5 - 0.0 - - 10 - - - -
29/07:00am 8.4 CALM 0 0 1023.1 - 0.0 - - 10 - - - -
29/06:30am 5.3 CALM 0 0 1022.9 - 0.0 - - 10 - - - -
29/06:00am 5.8 CALM 0 0 1022.8 - 0.0 - - 10 - - - -
29/05:30am 6.0 CALM 0 0 1022.7 - 0.0 - - 10 - - - -
29/05:00am 6.9 CALM 0 0 1022.4 - 0.0 - - 10 - - - -
29/04:30am 7.2 N 2 4 1022.4 - 0.0 - - 10 - - - -
29/04:00am 7.6 CALM 0 0 1022.1 - 0.0 - - 10 - - - -
29/03:30am 8.1 CALM 0 3 1022.0 - 0.0 - - 10 - - - -
29/03:00am 8.4 WNW 1 4 1021.8 - 0.0 - - 10 - - - -
29/02:30am 8.5 SW 3 4 1022.1 - 0.0 - - 10 - - - -
29/02:00am 8.6 WNW 1 4 1022.3 - 0.0 - - 10 - - - -
29/01:30am 8.6 SSW 1 5 1022.5 - 0.0 - - 10 - - - -
29/01:00am 8.1 WNW 3 5 1022.8 - 0.0 - - 10 - - - -
29/12:30am 8.0 CALM 0 3 1022.8 - 0.0 - Partly cloudy 10 - - - -
29/12:00am 7.5 WNW 3 5 1022.9 - 0.0 - Partly cloudy 10 - - - -
 
Date/Time
EST
Temp

°C
Wind Pressure Rain
since 9am
mm
Weather Cloud Vis
km
Sea
Height
m
Swell
Dir
 
Speed
knots
Gust
knots
hPa Trend Height
m
Period
s
Dir
28/11:30pm 7.6 WNW 4 5 1023.2 - 0.0 - Partly cloudy 10 - - - -
28/11:00pm 7.1 WNW 4 7 1023.1 - 0.0 - - 10 - - - -
28/10:30pm 6.8 SSE 3 6 1023.1 - 0.0 - - 10 - - - -
28/10:00pm 7.4 NW 4 5 1023.1 - 0.0 - - 10 - - - -
28/09:30pm 7.6 CALM 0 0 1023.2 - 0.0 - - 10 - - - -
28/09:00pm 7.5 CALM 0 0 1023.2 - 0.0 - - 10 - - - -
28/08:30pm 8.9 CALM 0 3 1023.0 - 0.0 - - 10 - - - -
28/08:00pm 9.7 CALM 0 0 1022.5 - 0.0 - - 10 - - - -
28/07:30pm 11.2 WNW 3 5 1021.9 - 0.0 - - 10 - - - -
28/07:00pm 12.3 NW 4 5 1021.3 - 0.0 - - 10 - - - -
28/06:30pm 14.1 SSW 4 6 1020.9 - 0.0 - - 10 - - - -
28/06:00pm 15.2 S 7 9 1020.3 - 0.0 - - 10 - - - -
28/05:30pm 15.8 S 6 8 1019.9 - 0.0 - - 10 - - - -
28/05:00pm 18.7 SSW 5 7 1019.6 - 0.0 - - 10 - - - -
28/04:30pm 20.1 SW 6 8 1019.2 - 0.0 - - 10 - - - -
28/04:00pm 20.9 SW 8 12 1018.8 - 0.0 - - 10 - - - -
28/03:30pm 21.8 WSW 5 9 1018.4 - 0.0 - - 10 - - - -
28/03:00pm 21.5 W 8 14 1018.2 - 0.0 - - 10 - - - -
28/02:30pm 21.8 SW 9 15 1018.2 - 0.0 - - 10 - - - -
28/02:00pm 21.4 W 10 16 1018.3 - 0.0 - - 10 - - - -
28/01:30pm 21.8 W 11 15 1018.3 - 0.0 - - 10 - - - -
28/01:00pm 21.3 W 13 21 1018.6 - 0.0 - - 10 - - - -
28/12:30pm 21.3 WSW 11 17 1019.0 - 0.0 - - 10 - - - -
28/12:00pm 20.2 WSW 12 17 1019.4 - 0.0 - - 10 - - - -
28/11:30am 19.6 W 9 13 1019.9 - 0.0 - - 10 - - - -
28/11:00am 18.6 W 11 15 1020.3 - 0.0 - - 10 - - - -
28/10:30am 18.1 W 10 15 1020.5 - 0.0 - - 10 - - - -
28/10:00am 16.8 W 8 12 1020.8 - 0.0 - - 10 - - - -
28/09:30am 16.0 W 6 9 1021.0 - 0.0 - - 10 - - - -
28/09:00am 14.4 NW 4 5 1021.1 - 0.0 - - 10 - - - -
28/08:30am 12.0 NNW 4 5 1021.1 - 0.0 - - 10 - - - -
28/08:00am 10.6 WNW 2 4 1021.0 - 0.0 - - 10 - - - -
28/07:30am 9.5 CALM 0 4 1020.8 - 0.0 - - 10 - - - -
28/07:00am 7.9 NW 7 8 1020.5 - 0.0 - - 10 - - - -
28/06:30am 6.2 SW 1 3 1020.5 - 0.0 - - 10 - - - -
28/06:09am 5.4 W 1 3 1020.3 - 0.0 - - 10 - - - -
28/06:00am 4.6 WSW 3 4 1020.3 - 0.0 - - 6 - - - -
28/05:50am 4.1 SW 3 4 1020.2 - 0.0 - - 5 - - - -
28/05:46am 4.5 WSW 2 4 1020.1 - 0.0 - - 10 - - - -
28/05:30am 4.8 SW 3 4 1019.9 - 0.0 - - 0.6 - - - -
28/05:00am 5.6 NW 2 5 1019.4 - 0.0 - - 1 - - - -
28/04:41am 5.8 WNW 1 4 1019.3 - 0.0 - - 3 - - - -
28/04:30am 6.4 NW 3 6 1019.2 - 0.0 - - 10 - - - -
28/04:21am 6.9 NW 5 7 1019.1 - 0.0 - - 10 - - - -
28/04:00am 6.5 WNW 1 5 1018.9 - 0.0 - - 7 - - - -
28/03:46am 5.3 W 3 4 1018.8 - 0.0 - - 5 - - - -
28/03:30am 6.3 CALM 0 3 1018.8 - 0.0 - - 10 - - - -
28/03:00am 6.9 WNW 5 6 1018.8 - 0.0 - - 10 - - - -
28/02:30am 6.7 WNW 4 5 1018.9 - 0.0 - - 10 - - - -
28/02:16am 6.6 CALM 0 0 1019.1 - 0.0 - - 10 - - - -
28/02:00am 6.9 CALM 0 0 1019.0 - 0.0 - - 2 - - - -
28/01:53am 6.6 NNW 1 6 1019.1 - 0.0 - - 4 - - - -
28/01:46am 8.6 NNE 1 6 1019.1 - 0.0 - - 10 - - - -
28/01:30am 7.9 NNW 1 3 1019.2 - 0.0 - - 2 - - - -
28/01:06am 8.3 NW 2 4 1019.4 - 0.0 - - 5 - - - -
28/01:00am 8.1 W 2 3 1019.5 - 0.0 - - 10 - - - -
28/12:30am 8.5 CALM 0 0 1019.5 - 0.0 - - 10 - - - -
28/12:18am 9.4 N 2 4 1019.5 - 0.0 - - 10 - - - -
28/12:00am 9.7 CALM 0 4 1019.5 - 0.0 - - 0.3 - - - -
 
Date/Time
EST
Temp

°C
Wind Pressure Rain
since 9am
mm
Weather Cloud Vis
km
Sea
Height
m
Swell
Dir
 
Speed
knots
Gust
knots
hPa Trend Height
m
Period
s
Dir
27/11:36pm 9.4 CALM 0 0 1019.6 - 0.0 - - 4 - - - -
27/11:35pm 9.3 CALM 0 0 1019.5 - 0.0 - - 9 - - - -
27/11:30pm 10.2 CALM 0 0 1019.5 - 0.0 - - 10 - - - -
27/11:16pm 10.7 WSW 1 4 1019.5 - 0.0 - - 3 - - - -
27/11:15pm 10.5 WSW 1 4 1019.5 - 0.0 - - 8 - - - -
27/11:00pm 10.3 SSW 2 5 1019.4 - 0.0 - - 0.5 - - - -
27/10:49pm 11.7 CALM 0 0 1019.4 - 0.0 - - 3 - - - -
27/10:30pm 12.4 WNW 4 5 1019.7 - 0.0 - - 10 - - - -
27/10:00pm 13.2 W 1 4 1019.9 - 0.0 - Partly cloudy 10 - - - -
27/09:30pm 14.0 NNW 6 8 1019.9 - 0.0 - Partly cloudy 10 - - - -
27/09:00pm 13.9 NW 4 5 1019.6 - 0.0 - Cloudy 10 - - - -
27/08:30pm 14.0 CALM 0 0 1019.6 - 0.0 - Partly cloudy 10 - - - -
27/08:00pm 13.7 NNE 3 4 1019.3 - 0.0 - - 10 - - - -
27/07:30pm 14.4 CALM 0 0 1019.4 - 0.0 - - 10 - - - -
27/07:00pm 14.5 NNW 1 4 1019.3 - 0.0 - - 10 - - - -
27/06:30pm 14.9 CALM 0 4 1018.8 - 0.0 - Partly cloudy 10 - - - -
27/06:00pm 15.4 CALM 0 0 1018.6 - 0.0 - Cloudy 10 - - - -
27/05:30pm 16.0 CALM 0 0 1018.1 - 0.0 - Partly cloudy 10 - - - -
27/05:00pm 16.1 SSW 4 4 1018.0 - 0.0 - Partly cloudy 10 - - - -
27/04:30pm 16.8 SW 4 6 1017.7 - 0.0 - Cloudy 10 - - - -
27/04:00pm 17.6 SW 4 6 1017.5 - 0.0 - Partly cloudy 10 - - - -
27/03:30pm 18.2 S 2 4 1017.3 - 0.0 - Partly cloudy 10 - - - -
27/03:00pm 18.2 CALM 0 0 1017.5 - 0.0 - Cloudy 10 - - - -
27/02:30pm 18.2 NNE 2 4 1017.7 - 0.0 - Partly cloudy 10 - - - -
27/02:00pm 18.3 ENE 4 6 1017.7 - 0.0 - Partly cloudy 10 - - - -
27/01:30pm 17.9 E 5 6 1017.9 - 0.0 - Cloudy 10 - - - -
27/01:00pm 18.1 ENE 5 6 1018.2 - 0.0 - Cloudy 10 - - - -
27/12:30pm 18.5 NNE 3 5 1018.6 - 0.0 - Partly cloudy 10 - - - -
27/12:00pm 18.5 NNE 3 5 1018.9 - 0.0 - Mostly cloudy 10 - - - -
27/11:30am 19.1 NNE 4 6 1019.0 - 0.0 - - 10 - - - -
27/11:00am 17.9 E 2 4 1019.2 - 0.0 - Partly cloudy 10 - - - -
27/10:30am 17.4 NW 1 4 1019.8 - 0.0 - Partly cloudy 10 - - - -
27/10:00am 16.7 W 4 5 1020.4 - 0.0 - Partly cloudy 10 - - - -
27/09:30am 15.5 SW 4 6 1020.4 - 0.0 - - 10 - - - -
27/09:00am 14.9 SW 4 6 1020.5 - 0.0 - Mostly clear 10 - - - -
27/08:30am 13.6 WSW 2 3 1020.7 - 0.0 - - 10 - - - -
27/08:00am 12.9 NW 5 6 1021.0 - 0.0 - - 10 - - - -
27/07:30am 12.0 NNW 3 5 1020.7 - 0.0 - Partly cloudy 10 - - - -
27/07:00am 11.7 N 4 5 1020.4 - 0.0 - Cloudy 10 - - - -
27/06:30am 11.0 NW 1 4 1020.4 - 0.0 - Partly cloudy 10 - - - -
27/06:00am 10.7 CALM 0 0 1020.2 - 0.0 - Cloudy 10 - - - -
27/05:30am 10.8 WNW 2 4 1020.0 - 0.0 - Partly cloudy 10 - - - -
27/05:00am 10.8 NW 4 5 1020.0 - 0.0 - - 10 - - - -
27/04:30am 10.6 CALM 0 0 1019.7 - 0.0 - - 10 - - - -
27/04:00am 11.1 N 1 3 1018.9 - 0.0 - - 10 - - - -
27/03:30am 10.6 NW 3 3 1019.4 - 0.0 - - 10 - - - -
27/03:00am 11.1 CALM 0 0 1019.3 - 0.0 - Cloudy 10 - - - -
27/02:30am 11.2 CALM 0 0 1019.5 - 0.0 - - 10 - - - -
27/02:00am 11.6 CALM 0 0 1019.6 - 0.0 - - 10 - - - -
27/01:30am 11.3 NW 3 4 1020.1 - 0.0 - - 10 - - - -
27/01:00am 11.5 NNW 2 4 1020.3 - 0.0 - - 10 - - - -
27/12:30am 11.3 NW 1 3 1020.3 - 0.0 - - 10 - - - -
27/12:00am 11.1 NW 3 5 1020.7 - 0.0 - Cloudy 10 - - - -
 
Date/Time
EST
Temp

°C
Wind Pressure Rain
since 9am
mm
Weather Cloud Vis
km
Sea
Height
m
Swell
Dir
 
Speed
knots
Gust
knots
hPa Trend Height
m
Period
s
Dir
26/11:30pm 10.2 CALM 0 0 1020.9 - 0.0 - - 10 - - - -
26/11:00pm 9.3 CALM 0 0 1021.0 - 0.0 - - 10 - - - -
26/10:30pm 9.7 CALM 0 0 1021.1 - 0.0 - - 10 - - - -
26/10:00pm 9.5 CALM 0 0 1021.0 - 0.0 - - 10 - - - -
26/09:30pm 9.8 CALM 0 0 1021.3 - 0.0 - - 10 - - - -
26/09:00pm 9.7 W 1 4 1021.5 - 0.0 - - 10 - - - -
26/08:30pm 11.3 CALM 0 0 1021.2 - 0.0 - - 10 - - - -
26/08:00pm 10.8 CALM 0 0 1021.0 - 0.0 - - 10 - - - -
26/07:30pm 11.3 CALM 0 0 1020.5 - 0.0 - - 10 - - - -
26/07:00pm 12.5 CALM 0 0 1020.4 - 0.0 - - 10 - - - -
26/06:30pm 13.0 CALM 0 0 1020.0 - 0.0 - Partly cloudy 10 - - - -
26/06:00pm 13.9 W 1 4 1019.5 - 0.0 - - 10 - - - -

Other Formats:

Comma delimited format used in spreadsheet applications
http://www.bom.gov.au/fwo/IDN60701/IDN60701.94786.axf

JavaScript Object Notation format (JSON) in row-major order
http://www.bom.gov.au/fwo/IDN60701/IDN60701.94786.json